ADDS METAR Data INFO
IDs: Format: Raw Decoded Include TAF

Data at: 2345 UTC 15 Dec 2017

KPIB 152256Z AUTO 00000KT 10SM CLR 06/M01 A3022 RMK AO2 SLP236 T00561006
KPIB 152156Z AUTO 36004KT 10SM CLR 06/M01 A3022 RMK AO2 SLP234 T00611006
KPIB 152056Z AUTO 35006KT 10SM CLR 07/M01 A3023 RMK AO2 SLP236 T00671011 55008
KPIB 151956Z AUTO 36009KT 10SM CLR 07/M01 A3021 RMK AO2 SLP230 T00671011
KPIB 151856Z AUTO 01009KT 10SM CLR 07/M01 A3023 RMK AO2 SLP237 T00721011
KPIB 151756Z AUTO 01008KT 10SM CLR 07/M02 A3025 RMK AO2 SLP244 T00671017 10072 20039 50009
KPIB 151656Z AUTO 36007KT 10SM FEW100 06/M01 A3028 RMK AO2 SLP254 T00611006
KPIB 151556Z AUTO 34006KT 10SM CLR 06/00 A3027 RMK AO2 PRESRR SLP254 T00560000
KPIB 151456Z AUTO 36007KT 10SM CLR 05/01 A3022 RMK AO2 SLP236 T00500006 51028 TSNO
KPIB 151356Z AUTO 35006KT 10SM CLR 04/01 A3020 RMK AO2 SLP228 T00440006
KPIB 151256Z AUTO 36006KT 10SM CLR 04/01 A3016 RMK AO2 SLP214 T00390011
KPIB 151156Z AUTO 36005KT 10SM CLR 04/01 A3014 RMK AO2 SLP206 T00440011 10072 20044 53015
KPIB 151056Z AUTO 36007KT 10SM CLR 05/02 A3011 RMK AO2 SLP197 T00500017
KPIB 150956Z AUTO 36010KT 10SM CLR 06/02 A3010 RMK AO2 SLP193 T00560022
KPIB 150856Z AUTO 36008KT 10SM CLR 06/03 A3009 RMK AO2 SLP192 T00610033 53012
KPIB 150756Z AUTO 36008KT 10SM CLR 06/03 A3008 RMK AO2 SLP186 T00610033
KPIB 150656Z AUTO 34006KT 10SM CLR 07/04 A3007 RMK AO2 SLP181 T00720039
KPIB 150556Z AUTO 00000KT 9SM CLR 06/05 A3006 RMK AO2 SLP180 T00560050 10089 20050 401560000 53003
KPIB 150456Z AUTO 00000KT 10SM CLR 06/04 A3005 RMK AO2 SLP178 T00560044
KPIB 150356Z AUTO 00000KT 9SM CLR 05/04 A3005 RMK AO2 SLP176 T00500044
KPIB 150256Z AUTO 00000KT 10SM CLR 06/06 A3005 RMK AO2 SLP177 T00610056 51015
KPIB 150156Z AUTO 00000KT 10SM CLR 07/06 A3004 RMK AO2 SLP173 T00720061
KPIB 150056Z AUTO 00000KT 10SM CLR 08/06 A3002 RMK AO2 SLP169 T00780061 TSNO
KPIB 142356Z AUTO 00000KT 10SM CLR 09/07 A3001 RMK AO2 SLP163 T00890072 10156 20089 53013
KPIB 142256Z AUTO 00000KT 10SM CLR 11/07 A2998 RMK AO2 SLP154 T01110072
KPIB 142156Z AUTO 00000KT 10SM CLR 13/07 A2998 RMK AO2 SLP152 T01330072
KPIB 142105Z AUTO 00000KT 10SM FEW002 15/05 A2997 RMK AO2
KPIB 142056Z AUTO 00000KT 10SM CLR 15/05 A2997 RMK AO2 SLP147 T01500050 55008
KPIB 141956Z AUTO 19005KT 10SM CLR 16/04 A2996 RMK AO2 SLP147 T01560044
KPIB 141916Z AUTO VRB03KT 10SM FEW001 15/05 A2997 RMK AO2
KPIB 141856Z AUTO 00000KT 10SM CLR 14/05 A2998 RMK AO2 SLP152 T01440050
KPIB 141756Z AUTO 00000KT 10SM CLR 14/04 A2999 RMK AO2 SLP157 T01390039 10144 20000 58009
KPIB 141732Z AUTO 00000KT 10SM FEW001 13/03 A3001 RMK AO2
KPIB 141656Z AUTO VRB03KT 10SM CLR 14/04 A3002 RMK AO2 SLP167 T01390044
KPIB 141616Z AUTO 29004KT 10SM FEW002 12/04 A3004 RMK AO2
KPIB 141556Z AUTO 29004KT 10SM CLR 12/05 A3004 RMK AO2 SLP171 T01170050
KPIB 141456Z AUTO VRB03KT 10SM FEW001 08/04 A3002 RMK AO2 SLP166 T00830044 53013
KPIB 141356Z AUTO 00000KT 6SM BR CLR 03/02 A2999 RMK AO2 SLP158 T00280022
KPIB 141256Z AUTO 00000KT 4SM BR CLR 01/M01 A2998 RMK AO2 SLP155 T00061006 FZRANO
KPIB 141156Z AUTO 00000KT 5SM BR CLR 00/M01 A2998 RMK AO2 SLP154 T00001006 10067 20000 53006 FZRANO